Bei Facebook empfehlenBei Twitter postenGoogle plusPinterest

Das Wetter im Erzgebirge am 06.05.2017

Wetter und Klima am 06.05.2017 Holzhau im Erzgebirge (630m ü.NN)
Letzte gemessene Temperatur und Uhrzeit der Messung23:45:00 Uhr7.30 °C
Temperatur (Maximum / Höchstwert) und Uhrzeit der Messung16:45:00 Uhr18.20 °C
Temperatur (Minimum / Tiefstwert) und Uhrzeit der Messung04:15:006.90 °C
Errechneter Absolutwert der Temperaturschwankungen zwischen Tmin und Tmax des Tages11.30 K
Errechnete Tagesmitteltemperatur10.72083 °C
Gesamt - Niederschlag des Tages (in flüssiger Form)0.00 Liter / m²
Luftdruck (Maximum / Höchstwert) und Zeitpunkt der Messung00:15:00 Uhr1014.80 hPa
Luftdruck (Minimum / Tiefstwert) und Zeitpunkt der Messung20:00:00 Uhr1006.40 hPa
Errechneter Absolutwert der Luftdruckschwankungen des Tages8.40 hPa
Höchste gemessene Windgeschwindigkeit und Uhrzeit der Messung15:45:00 Uhr14.04 km/h
Errechnete Windhäufigkeit in Relation zu den Messwerten des Tages12.50000 %
Niedrigste Windkühle (Windchill) und Zeitpunkt der Messung23:00:00 Uhr6.00 °C
Taupunkt (Maximum / Höchstwert) und Uhrzeit der Messung16:30:00 Uhr10.50 °C
Taupunkt (Minimum / Tiefstwert) und Uhrzeit der Messung23:45:005.80 °C
Anzahl der automatisch eingelesenen Messwerte 96

Detaillierte Wetter- und Klima- Messwerte für den 06.05.2017 in Holzhau im Erzgebirge (630m ü.NN)
ZeitTemperaturLuftdruckRel. LuftfeuchteWindWindrichtungWindchillTaupunktNiederschlag l/m²
23:45:007.30 °C1006.80 hPa90.00 %5.80 °C 
23:30:007.90 °C1006.70 hPa91.00 %6.50 °C 
23:15:008.20 °C1006.50 hPa91.00 %6.80 °C 
23:00:008.10 °C1006.70 hPa91.00 %12.24 km/hSSO6.00 °C6.70 °C 
22:45:008.30 °C1006.50 hPa91.00 %6.90 °C 
22:30:007.90 °C1006.60 hPa91.00 %6.50 °C 
22:15:007.60 °C1006.50 hPa89.00 %5.90 °C 
22:00:007.80 °C1006.60 hPa88.00 %5.90 °C 
21:45:008.10 °C1006.60 hPa87.00 %6.10 °C 
21:30:008.40 °C1006.60 hPa86.00 %6.20 °C 
21:15:008.90 °C1006.60 hPa85.00 %6.50 °C 
21:00:009.40 °C1006.60 hPa84.00 %6.80 °C 
20:45:0010.30 °C1006.70 hPa81.00 %7.20 °C 
20:30:0011.30 °C1006.50 hPa81.00 %8.20 °C 
20:15:0011.90 °C1006.50 hPa79.00 %8.40 °C 
20:00:0012.60 °C1006.40 hPa77.00 %8.70 °C 
19:45:0013.30 °C1006.40 hPa76.00 %9.20 °C 
19:30:0013.80 °C1006.60 hPa75.00 %9.50 °C 
19:15:0013.90 °C1006.80 hPa76.00 %9.70 °C 
19:00:0013.30 °C1006.90 hPa77.00 %9.40 °C 
18:45:0013.60 °C1007.20 hPa75.00 %9.30 °C 
18:30:0014.20 °C1007.20 hPa73.00 %9.40 °C 
18:15:0014.90 °C1007.20 hPa70.00 %9.50 °C 
18:00:0015.80 °C1007.40 hPa67.00 %9.70 °C 
17:45:0016.70 °C1007.30 hPa64.00 %9.90 °C 
17:30:0016.10 °C1007.60 hPa63.00 %9.10 °C 
17:15:0015.90 °C1007.70 hPa61.00 %8.40 °C 
17:00:0017.30 °C1007.80 hPa58.00 %9.00 °C 
16:45:0018.20 °C1007.80 hPa60.00 %11.16 km/hSSO18.30 °C10.30 °C 
16:30:0018.10 °C1007.90 hPa61.00 %9.00 km/hSW18.40 °C10.50 °C 
16:15:0017.60 °C1008.00 hPa59.00 %5.40 km/hSO18.30 °C9.50 °C 
16:00:0017.20 °C1008.30 hPa62.00 %9.90 °C 
15:45:0017.80 °C1008.50 hPa62.00 %14.04 km/hO17.60 °C10.40 °C 
15:30:0016.70 °C1008.50 hPa66.00 %10.30 °C 
15:15:0016.30 °C1008.60 hPa66.00 %9.90 °C 
15:00:0016.60 °C1008.70 hPa65.00 %2.88 km/hS16.60 °C10.00 °C 
14:45:0015.40 °C1008.90 hPa69.00 %9.70 °C 
14:30:0014.90 °C1009.20 hPa71.00 %9.70 °C 
14:15:0015.10 °C1009.40 hPa72.00 %10.10 °C 
14:00:0015.20 °C1009.70 hPa72.00 %10.20 °C 
13:45:0014.50 °C1009.90 hPa73.00 %2.88 km/hSO14.50 °C9.70 °C 
13:30:0014.50 °C1010.10 hPa75.00 %10.10 °C 
13:15:0014.20 °C1010.00 hPa76.00 %3.60 km/hOSO14.20 °C10.00 °C 
13:00:0013.80 °C1010.40 hPa77.00 %11.88 km/hSO12.90 °C9.80 °C 
12:45:0013.90 °C1010.40 hPa78.00 %5.40 km/hSO14.10 °C10.10 °C 
12:30:0013.90 °C1010.60 hPa79.00 %3.96 km/hS13.90 °C10.30 °C 
12:15:0013.20 °C1010.90 hPa83.00 %10.40 °C 
12:00:0012.50 °C1010.90 hPa82.00 %0.36 km/hSSO12.50 °C9.50 °C 
11:45:0012.90 °C1011.10 hPa83.00 %10.10 °C 
11:30:0012.50 °C1011.00 hPa86.00 %10.20 °C 
11:15:0011.80 °C1011.30 hPa87.00 %9.70 °C 
11:00:0011.40 °C1011.40 hPa89.00 %9.70 °C 
10:45:0010.60 °C1011.40 hPa89.00 %8.90 °C 
10:30:0010.40 °C1011.50 hPa90.00 %8.80 °C 
10:15:0010.40 °C1011.70 hPa90.00 %8.80 °C 
10:00:0010.40 °C1011.60 hPa90.00 %8.80 °C 
09:45:0010.60 °C1011.60 hPa91.00 %9.20 °C 
09:30:0010.40 °C1011.70 hPa92.00 %9.20 °C 
09:15:0010.10 °C1011.90 hPa92.00 %8.90 °C 
09:00:009.90 °C1012.00 hPa92.00 %8.70 °C 
08:45:009.60 °C1012.10 hPa93.00 %8.50 °C 
08:30:009.20 °C1012.10 hPa93.00 %8.10 °C 
08:15:009.30 °C1012.10 hPa94.00 %8.40 °C 
08:00:009.10 °C1012.10 hPa94.00 %8.20 °C 
07:45:008.80 °C1012.10 hPa94.00 %7.90 °C 
07:30:008.30 °C1012.10 hPa94.00 %7.40 °C 
07:15:007.90 °C1012.20 hPa94.00 %7.00 °C 
07:00:007.60 °C1012.30 hPa94.00 %6.70 °C 
06:45:007.40 °C1012.30 hPa94.00 %6.50 °C 
06:30:007.30 °C1012.40 hPa94.00 %6.40 °C 
06:15:007.20 °C1012.50 hPa94.00 %6.30 °C 
06:00:007.10 °C1012.60 hPa94.00 %6.20 °C 
05:45:007.10 °C1012.50 hPa94.00 %6.20 °C 
05:30:007.00 °C1012.50 hPa94.00 %6.10 °C 
05:15:007.00 °C1012.50 hPa94.00 %6.10 °C 
05:00:007.00 °C1012.60 hPa94.00 %6.10 °C 
04:45:007.00 °C1012.60 hPa94.00 %6.10 °C 
04:30:007.00 °C1012.80 hPa94.00 %6.10 °C 
04:15:006.90 °C1012.80 hPa93.00 %5.80 °C 
04:00:007.00 °C1013.00 hPa93.00 %5.90 °C 
03:45:007.00 °C1013.10 hPa93.00 %5.90 °C 
03:30:006.90 °C1013.10 hPa93.00 %5.80 °C 
03:15:007.00 °C1013.30 hPa93.00 %5.90 °C 
03:00:006.90 °C1013.30 hPa93.00 %5.80 °C 
02:45:006.90 °C1013.40 hPa93.00 %5.80 °C 
02:30:006.90 °C1013.50 hPa93.00 %5.80 °C 
02:15:006.90 °C1013.80 hPa93.00 %5.80 °C 
02:00:006.90 °C1013.90 hPa93.00 %5.80 °C 
01:45:006.90 °C1014.00 hPa93.00 %5.80 °C 
01:30:006.90 °C1014.20 hPa93.00 %5.80 °C 
01:15:006.90 °C1014.40 hPa93.00 %5.80 °C 
01:00:006.90 °C1014.60 hPa93.00 %5.80 °C 
00:45:006.90 °C1014.50 hPa93.00 %5.80 °C 
00:30:006.90 °C1014.70 hPa93.00 %5.80 °C 
00:15:006.90 °C1014.80 hPa93.00 %5.80 °C 
00:00:006.90 °C1014.80 hPa93.00 %5.80 °C 

Permanenter Link zu dieser Seite: Wetter im Erzgebirge am 06.05.2017
Performance-Info: Die Erstellung der Seite / Statistik(en) / Tabelle(n) erforderte 5 Datenbankserver-Abfrage(n) und dauerte 98 Millisekunden. (Dieser Messwert ist von der Gesamt-Auslastung des Servers abhängig.)
Erzgebirge - Wetter | Erzgebirge - Wetter (Mobilgeräte) | Komplette Klimadatenbank